Time;durP1;ratioP1;P1;durP2;ratioP2;P2;SDS_P1;SDS_P2;PMS_P1;PMS_P2;Temp;Humidity;BMP_temperature;BMP_pressure;BME280_temperature;BME280_humidity;BME280_pressure;Samples;Min_cycle;Max_cycle;Signal;HPM_P1;HPM_P2
2022/10/17 00:02:17;;;;;;;4.43;3.55;;;15.40;80.70;;;14.30;100.00;96610.63;4988618;28;20036;-67
2022/10/17 00:04:43;;;;;;;6.70;3.30;;;15.30;80.80;;;14.29;100.00;96603.69;5003632;28;20070;-67
2022/10/17 00:07:09;;;;;;;8.15;3.78;;;15.30;81.40;;;14.29;100.00;96603.69;4979580;28;20058;-67
2022/10/17 00:09:35;;;;;;;4.93;3.22;;;15.40;82.00;;;14.29;100.00;96598.41;4996466;28;20135;-67
2022/10/17 00:12:01;;;;;;;6.15;3.30;;;15.40;81.60;;;14.26;100.00;96606.75;4990740;28;20104;-66
2022/10/17 00:14:27;;;;;;;6.38;3.40;;;15.40;81.40;;;14.23;100.00;96607.13;4999321;28;20026;-67
2022/10/17 00:16:53;;;;;;;4.00;3.30;;;15.30;81.50;;;14.21;100.00;96611.81;4989803;28;20044;-67
2022/10/17 00:19:18;;;;;;;4.55;2.88;;;15.20;81.30;;;14.17;100.00;96607.94;4982476;28;20077;-68
2022/10/17 00:21:44;;;;;;;5.72;3.15;;;15.20;81.10;;;14.15;100.00;96612.59;4984841;28;20104;-67
2022/10/17 00:24:10;;;;;;;5.65;3.13;;;15.20;80.80;;;14.08;100.00;96607.31;4986181;28;20121;-67
2022/10/17 00:26:35;;;;;;;4.28;3.50;;;15.10;80.70;;;14.03;100.00;96605.25;4988415;28;20079;-67
2022/10/17 00:29:01;;;;;;;3.67;3.30;;;15.10;81.00;;;14.00;100.00;96608.28;4990144;28;20065;-67
2022/10/17 00:31:27;;;;;;;7.45;3.40;;;15.10;81.40;;;13.99;100.00;96603.19;4989581;28;20133;-68
2022/10/17 00:33:53;;;;;;;6.30;3.95;;;15.10;81.60;;;14.01;100.00;96617.84;4985643;28;20091;-67
2022/10/17 00:36:21;;;;;;;6.30;3.70;;;15.10;82.20;;;14.02;100.00;96618.66;4982364;28;20116;-67
2022/10/17 00:38:50;;;;;;;5.55;3.40;;;15.10;83.20;;;14.02;100.00;96619.47;4996488;28;20212;-67
2022/10/17 00:41:18;;;;;;;5.15;3.70;;;15.10;82.90;;;14.02;100.00;96611.53;4986448;28;20056;-67
2022/10/17 00:44:01;;;;;;;8.13;4.10;;;15.10;82.90;;;14.03;100.00;96615.84;4986948;28;20107;-66
2022/10/17 00:46:35;;;;;;;5.22;3.55;;;15.10;82.50;;;14.02;100.00;96618.66;4975614;28;20569;-67
2022/10/17 00:49:09;;;;;;;4.70;3.58;;;15.10;82.20;;;13.98;100.00;96623.53;4974191;28;20030;-67
2022/10/17 00:51:42;;;;;;;6.53;3.55;;;15.10;82.00;;;13.93;100.00;96618.00;4973334;28;20034;-68
2022/10/17 00:54:08;;;;;;;4.22;3.42;;;15.10;82.00;;;13.90;100.00;96618.41;4992374;28;20049;-67
2022/10/17 00:56:33;;;;;;;5.10;3.92;;;15.00;82.20;;;13.89;100.00;96619.44;4980197;28;20038;-67
2022/10/17 00:58:59;;;;;;;7.35;4.57;;;15.00;82.80;;;13.87;100.00;96616.16;5005111;28;20117;-67
2022/10/17 01:01:25;;;;;;;7.30;4.25;;;15.00;83.20;;;13.87;100.00;96610.88;4983968;28;20121;-67
2022/10/17 01:03:51;;;;;;;6.75;4.40;;;15.10;83.70;;;13.87;100.00;96616.16;4989689;28;20108;-67
2022/10/17 01:06:16;;;;;;;30.13;26.38;;;15.10;83.80;;;13.89;100.00;96619.44;4975118;28;20392;-67
2022/10/17 01:08:42;;;;;;;23.27;17.60;;;15.10;84.10;;;13.92;100.00;96615.56;5000455;28;20509;-67
2022/10/17 01:11:36;;;;;;;8.80;6.25;;;15.10;84.30;;;13.89;100.00;96618.63;5000793;28;20039;-67
2022/10/17 01:14:26;;;;;;;5.82;4.78;;;15.00;84.40;;;13.85;100.00;96618.19;5005757;28;20034;-67
2022/10/17 01:17:25;;;;;;;6.10;4.60;;;15.00;84.40;;;13.83;100.00;96614.13;4988522;28;20042;-67
2022/10/17 01:20:28;;;;;;;7.70;4.57;;;15.00;84.50;;;13.81;100.00;96614.31;4975731;28;20054;-67
2022/10/17 01:23:46;;;;;;;6.43;4.90;;;15.00;84.40;;;13.79;100.00;96609.19;5002325;28;20069;-67
2022/10/17 01:26:38;;;;;;;5.53;4.30;;;14.90;84.90;;;13.76;100.00;96614.88;5021066;28;20087;-67
2022/10/17 01:29:36;;;;;;;5.55;4.10;;;14.90;84.80;;;13.73;100.00;96609.16;5001935;28;20120;-67
2022/10/17 01:32:16;;;;;;;4.78;3.90;;;14.90;84.70;;;13.71;100.00;96611.19;4999822;28;20517;-65
2022/10/17 01:34:54;;;;;;;5.43;4.15;;;14.90;84.50;;;13.69;100.00;96613.22;4998920;28;20061;-65
2022/10/17 01:37:32;;;;;;;7.20;4.50;;;14.90;84.20;;;13.68;100.00;96609.75;4986600;28;20069;-65
2022/10/17 01:40:15;;;;;;;4.88;3.90;;;14.90;84.10;;;13.69;100.00;96613.22;5003436;28;20060;-65
2022/10/17 01:43:11;;;;;;;8.35;4.32;;;14.80;84.10;;;13.65;100.00;96609.34;4968628;28;20060;-65
2022/10/17 01:45:51;;;;;;;5.40;4.00;;;14.80;84.20;;;13.62;100.00;96607.09;4997323;28;20062;-65
2022/10/17 01:48:21;;;;;;;6.43;4.32;;;14.70;84.10;;;13.59;100.00;96612.78;4987536;28;20065;-65
2022/10/17 01:51:01;;;;;;;7.97;4.82;;;14.70;84.40;;;13.57;100.00;96601.56;4952088;28;20474;-65
2022/10/17 01:53:37;;;;;;;6.38;4.82;;;14.70;85.00;;;13.52;100.00;96611.91;4969195;28;20038;-66
2022/10/17 01:56:04;;;;;;;5.45;4.93;;;14.60;85.10;;;13.50;100.00;96609.47;4952279;28;20084;-65
2022/10/17 01:58:36;;;;;;;6.65;4.53;;;14.60;85.20;;;13.49;100.00;96610.47;4987130;28;20044;-65
2022/10/17 02:01:04;;;;;;;5.00;4.15;;;14.60;85.00;;;13.48;100.00;96607.00;4985219;28;20536;-65
2022/10/17 02:03:30;;;;;;;5.30;4.32;;;14.60;84.70;;;13.48;100.00;96606.19;4966414;28;20044;-65
2022/10/17 02:05:55;;;;;;;6.70;4.75;;;14.60;84.50;;;13.44;100.00;96611.06;4998182;28;20473;-65
2022/10/17 02:08:40;;;;;;;6.90;4.93;;;14.60;84.60;;;13.44;100.00;96604.97;4970986;28;20135;-65
2022/10/17 02:11:33;;;;;;;7.20;4.50;;;14.60;84.40;;;13.44;100.00;96611.06;4996305;28;20048;-65
2022/10/17 02:15:03;;;;;;;6.10;4.60;;;14.60;84.20;;;13.41;100.00;96606.16;4987246;28;20652;-65
2022/10/17 02:17:46;;;;;;;5.68;4.53;;;14.50;84.10;;;13.36;100.00;96603.28;4994323;28;20379;-65
2022/10/17 02:20:35;;;;;;;4.72;4.15;;;14.50;84.10;;;13.33;100.00;96600.19;5006340;28;20117;-65
2022/10/17 02:23:26;;;;;;;6.47;4.55;;;14.50;84.10;;;13.29;100.00;96607.69;4999290;28;20083;-65
2022/10/17 02:26:27;;;;;;;28.92;24.50;;;14.50;84.10;;;13.28;100.00;96607.91;4976086;28;20535;-65
2022/10/17 02:29:05;;;;;;;9.85;8.55;;;14.50;84.30;;;13.27;100.00;96609.72;5002437;28;20065;-65
2022/10/17 02:32:07;;;;;;;7.60;5.93;;;14.50;84.10;;;13.25;100.00;96609.09;4990387;28;20046;-65
2022/10/17 02:34:39;;;;;;;19.33;16.90;;;14.40;83.60;;;13.23;100.00;96611.13;4984588;28;20041;-66
2022/10/17 02:37:05;;;;;;;16.48;11.98;;;14.30;83.60;;;13.18;100.00;96610.88;5004379;28;20052;-66
2022/10/17 02:39:31;;;;;;;7.68;5.30;;;14.30;83.50;;;13.13;100.00;96615.91;4978628;28;20050;-66
2022/10/17 02:41:59;;;;;;;5.63;3.25;;;14.30;83.20;;;13.11;100.00;96613.44;4980656;28;20109;-63
2022/10/17 02:44:24;;;;;;;3.90;3.35;;;14.20;83.20;;;13.09;100.00;96617.28;4985999;28;20053;-64
2022/10/17 02:47:00;;;;;;;3.97;3.53;;;14.20;83.50;;;13.04;100.00;96615.22;4976217;28;20040;-65
2022/10/17 02:49:32;;;;;;;3.80;2.95;;;14.20;83.60;;;13.03;100.00;96621.50;4990459;28;20027;-65
2022/10/17 02:52:27;;;;;;;4.07;3.20;;;14.20;83.40;;;13.01;100.00;96630.63;4982480;28;20807;-65
2022/10/17 02:55:13;;;;;;;4.20;3.00;;;14.10;82.90;;;12.98;100.00;96631.00;4971663;28;20102;-64
2022/10/17 02:57:48;;;;;;;3.38;2.80;;;14.10;82.80;;;12.94;100.00;96638.50;5001268;28;20450;-65
2022/10/17 03:00:15;;;;;;;5.25;3.03;;;14.00;82.50;;;12.87;100.00;96630.50;4978887;28;20062;-65
2022/10/17 03:02:49;;;;;;;3.97;2.45;;;14.00;82.50;;;12.84;100.00;96633.53;4984570;28;20041;-65
2022/10/17 03:05:24;;;;;;;4.00;3.10;;;13.90;82.60;;;12.77;100.00;96627.38;4999395;28;20035;-65
2022/10/17 03:07:51;;;;;;;45.90;36.45;;;13.90;82.70;;;12.73;100.00;96627.97;4974056;28;20026;-65
2022/10/17 03:10:17;;;;;;;50.78;45.08;;;13.80;83.20;;;12.70;100.00;96630.97;4991301;28;20037;-65
2022/10/17 03:12:42;;;;;;;21.52;17.73;;;13.80;83.40;;;12.68;100.00;96633.81;5001331;28;20034;-65
2022/10/17 03:15:09;;;;;;;18.60;13.95;;;13.80;83.50;;;12.69;100.00;96642.53;4988594;28;20135;-65
2022/10/17 03:17:35;;;;;;;7.60;5.07;;;13.80;83.30;;;12.69;100.00;96635.44;4980145;28;20585;-65
2022/10/17 03:20:01;;;;;;;6.90;3.70;;;13.80;83.00;;;12.66;100.00;96638.44;5003870;28;20041;-65
2022/10/17 03:22:26;;;;;;;4.05;3.22;;;13.80;82.80;;;12.65;100.00;96636.81;5001630;28;20525;-65
2022/10/17 03:24:52;;;;;;;33.45;29.83;;;13.80;82.70;;;12.61;100.00;96632.91;5010156;28;20121;-65
2022/10/17 03:27:18;;;;;;;32.70;27.73;;;13.70;82.70;;;12.58;100.00;96630.66;4981869;28;20057;-65
2022/10/17 03:29:44;;;;;;;10.82;9.68;;;13.70;82.60;;;12.56;100.00;96632.66;4987830;28;20165;-65
2022/10/17 03:32:09;;;;;;;3.75;3.05;;;13.70;82.40;;;12.53;100.00;96630.41;4989312;28;20116;-65
2022/10/17 03:34:35;;;;;;;7.55;2.53;;;13.70;82.10;;;12.50;100.00;96633.41;4991271;28;20145;-66
2022/10/17 03:37:01;;;;;;;3.75;2.10;;;13.60;82.00;;;12.47;100.00;96625.88;4992204;28;20030;-65
2022/10/17 03:39:27;;;;;;;4.25;2.35;;;13.60;81.90;;;12.45;100.00;96625.25;4985412;28;20062;-65
2022/10/17 03:41:52;;;;;;;3.33;2.20;;;13.60;82.00;;;12.41;100.00;96632.69;5006333;28;20118;-65
2022/10/17 03:44:18;;;;;;;5.80;2.53;;;13.60;82.10;;;12.39;100.00;96636.53;5004937;28;20121;-65
2022/10/17 03:46:44;;;;;;;4.63;2.45;;;13.60;82.30;;;12.36;100.00;96626.38;4975449;28;20054;-65
2022/10/17 03:49:09;;;;;;;5.03;2.45;;;13.60;82.50;;;12.35;100.00;96636.09;4988851;28;20109;-67
2022/10/17 03:51:35;;;;;;;6.43;2.55;;;13.60;82.60;;;12.33;100.00;96638.09;4955578;28;20065;-65
2022/10/17 03:54:01;;;;;;;9.05;3.10;;;13.50;82.60;;;12.33;100.00;96626.75;4994352;28;20029;-66
2022/10/17 03:56:27;;;;;;;3.20;2.47;;;13.60;82.70;;;12.31;100.00;96641.94;4975179;28;20517;-63
2022/10/17 03:58:54;;;;;;;5.07;2.38;;;13.60;82.60;;;12.29;100.00;96636.84;4976322;28;20030;-64
2022/10/17 04:01:20;;;;;;;4.15;2.33;;;13.50;82.50;;;12.26;100.00;96638.03;4994011;28;20038;-64
2022/10/17 04:03:53;;;;;;;2.80;1.98;;;13.50;82.20;;;12.22;100.00;96641.22;4973610;28;20045;-64
2022/10/17 04:06:19;;;;;;;4.75;2.25;;;13.40;82.10;;;12.18;100.00;96646.03;4977303;28;20033;-64
2022/10/17 04:08:45;;;;;;;2.42;1.50;;;13.30;82.10;;;12.15;100.00;96646.41;5001038;28;20034;-63
2022/10/17 04:11:14;;;;;;;1.90;1.33;;;13.40;81.70;;;12.10;100.00;96654.06;4980227;28;20404;-63
2022/10/17 04:13:40;;;;;;;3.20;1.20;;;13.20;81.00;;;12.04;100.00;96654.81;4957565;28;20030;-66
2022/10/17 04:16:11;;;;;;;1.88;1.50;;;13.10;80.80;;;11.98;100.00;96665.25;4990428;28;20493;-64
2022/10/17 04:18:36;;;;;;;14.82;11.93;;;13.10;80.90;;;11.92;100.00;96653.63;4993276;28;20061;-64
2022/10/17 04:21:06;;;;;;;37.17;28.95;;;13.10;81.70;;;11.90;100.00;96658.28;4993571;28;20112;-64
2022/10/17 04:23:32;;;;;;;5.97;4.43;;;13.10;81.90;;;11.87;100.00;96663.91;4992650;28;20029;-64
2022/10/17 04:25:58;;;;;;;3.35;2.28;;;13.00;81.30;;;11.83;100.00;96673.19;4993271;28;20037;-64
2022/10/17 04:28:25;;;;;;;4.07;2.17;;;13.00;81.00;;;11.80;100.00;96681.47;4974754;28;20045;-64
2022/10/17 04:30:57;;;;;;;3.75;1.92;;;12.90;81.20;;;11.76;100.00;96675.69;4989782;28;20041;-64
2022/10/17 04:33:23;;;;;;;3.70;1.77;;;12.90;81.10;;;11.71;100.00;96683.34;4989429;28;20038;-68
2022/10/17 04:36:04;;;;;;;7.25;2.25;;;12.80;81.00;;;11.65;100.00;96676.97;5006001;28;20054;-64
2022/10/17 04:38:29;;;;;;;3.30;2.10;;;12.70;80.90;;;11.58;100.00;96675.25;4976250;28;20080;-64
2022/10/17 04:41:02;;;;;;;3.28;2.25;;;12.70;81.10;;;11.55;100.00;96676.44;5009347;28;20596;-64
2022/10/17 04:43:32;;;;;;;4.50;2.20;;;12.70;81.10;;;11.52;100.00;96676.78;4961387;28;20049;-64
2022/10/17 04:45:58;;;;;;;7.55;1.92;;;12.70;81.10;;;11.48;100.00;96679.97;4977020;28;20060;-64
2022/10/17 04:48:24;;;;;;;2.88;1.88;;;12.60;81.20;;;11.43;100.00;96672.59;4958429;28;20062;-66
2022/10/17 04:50:54;;;;;;;6.03;2.33;;;12.60;81.10;;;11.39;100.00;96670.50;4976499;28;20111;-64
2022/10/17 04:53:20;;;;;;;5.33;2.43;;;12.60;81.20;;;11.34;100.00;96674.50;5009136;28;20037;-64
2022/10/17 04:55:46;;;;;;;3.72;2.45;;;12.60;81.40;;;11.32;100.00;96680.97;4961038;28;20455;-64
2022/10/17 04:58:11;;;;;;;2.65;2.08;;;12.50;81.70;;;11.31;100.00;96687.19;4990791;28;20137;-64
2022/10/17 05:00:37;;;;;;;3.53;2.00;;;12.60;81.90;;;11.29;100.00;96684.75;4984801;28;20161;-64
2022/10/17 05:03:03;;;;;;;4.85;2.22;;;12.50;81.90;;;11.30;100.00;96693.47;4976310;28;20050;-64
2022/10/17 05:05:29;;;;;;;4.47;2.50;;;12.50;82.00;;;11.27;100.00;96685.91;4975866;28;20092;-64
2022/10/17 05:07:55;;;;;;;4.35;1.90;;;12.60;81.80;;;11.24;100.00;96694.19;4959085;28;20566;-64
2022/10/17 05:10:20;;;;;;;3.80;1.85;;;12.50;81.60;;;11.19;100.00;96686.00;4990391;28;20062;-64
2022/10/17 05:12:47;;;;;;;1.83;1.50;;;12.40;81.00;;;11.18;100.00;96687.00;4992589;28;20026;-63
2022/10/17 05:15:13;;;;;;;2.10;1.55;;;12.40;81.10;;;11.15;100.00;96695.25;4976192;28;20098;-64
2022/10/17 05:17:39;;;;;;;2.35;2.00;;;12.40;81.60;;;11.11;100.00;96694.81;4991733;28;20200;-64
2022/10/17 05:20:05;;;;;;;3.08;1.88;;;12.30;81.90;;;11.09;100.00;96690.69;5007841;28;20458;-65
2022/10/17 05:22:31;;;;;;;3.78;1.85;;;12.30;82.30;;;11.07;100.00;96693.50;5008384;28;20029;-65
2022/10/17 05:24:57;;;;;;;2.67;1.90;;;12.30;82.40;;;11.06;100.00;96697.13;4975936;28;20045;-64
2022/10/17 05:27:23;;;;;;;5.97;2.28;;;12.30;82.70;;;11.06;100.00;96707.66;4991929;28;20057;-64
2022/10/17 05:29:48;;;;;;;1.60;1.42;;;12.40;82.50;;;11.03;100.00;96714.09;4990191;28;23039;-64
2022/10/17 05:32:15;;;;;;;2.00;1.10;;;12.20;82.10;;;11.00;100.00;96722.34;5007094;28;20177;-64
2022/10/17 05:34:41;;;;;;;1.80;1.40;;;12.20;82.10;;;10.98;100.00;96720.88;4976094;28;20058;-64
2022/10/17 05:37:06;;;;;;;2.28;1.63;;;12.10;82.10;;;10.95;100.00;96722.06;4992153;28;20069;-63
2022/10/17 05:39:32;;;;;;;3.58;1.60;;;12.10;82.40;;;10.91;100.00;96719.97;5007294;28;20053;-64
2022/10/17 05:41:58;;;;;;;3.35;1.80;;;12.10;82.40;;;10.89;100.00;96716.69;4992085;28;20354;-64
2022/10/17 05:44:23;;;;;;;2.55;1.85;;;12.20;82.30;;;10.89;100.00;96714.06;5007201;28;20052;-64
2022/10/17 05:46:49;;;;;;;2.28;1.60;;;12.10;82.50;;;10.88;100.00;96721.13;4975984;28;20113;-64
2022/10/17 05:49:15;;;;;;;6.90;1.90;;;12.20;82.30;;;10.88;100.00;96726.41;5007988;28;20038;-64
2022/10/17 05:51:41;;;;;;;3.22;2.30;;;12.20;82.40;;;10.88;100.00;96718.50;4991778;28;20033;-64
2022/10/17 05:54:07;;;;;;;4.05;2.20;;;12.20;82.20;;;10.88;100.00;96715.88;4974733;28;20552;-64
2022/10/17 05:56:33;;;;;;;3.63;2.22;;;12.20;82.20;;;10.87;100.00;96721.31;4972375;28;20030;-64
2022/10/17 05:58:59;;;;;;;3.88;2.20;;;12.20;82.40;;;10.90;100.00;96723.59;4988498;28;20103;-64
2022/10/17 06:01:24;;;;;;;3.90;2.90;;;12.20;82.90;;;10.91;100.00;96726.03;4971830;28;20609;-65
2022/10/17 06:03:50;;;;;;;2.80;2.35;;;12.30;83.30;;;10.94;100.00;96717.78;5001895;28;20081;-64
2022/10/17 06:06:16;;;;;;;6.03;2.78;;;12.30;83.50;;;10.95;100.00;96722.06;4991602;28;20120;-64
2022/10/17 06:08:42;;;;;;;3.20;2.50;;;12.30;83.90;;;10.97;100.00;96725.34;4975611;28;20034;-64
2022/10/17 06:11:08;;;;;;;3.75;2.45;;;12.40;83.80;;;11.00;100.00;96732.88;4959651;28;20030;-64
2022/10/17 06:13:34;;;;;;;6.18;2.55;;;12.40;83.60;;;11.02;100.00;96730.06;4973104;28;20030;-64
2022/10/17 06:16:00;;;;;;;5.65;2.53;;;12.40;83.80;;;11.05;100.00;96734.97;4975463;28;20049;-64
2022/10/17 06:18:25;;;;;;;3.72;2.22;;;12.50;83.70;;;11.10;100.00;96737.91;4991318;28;20161;-64
2022/10/17 06:20:51;;;;;;;4.68;2.88;;;12.50;83.90;;;11.14;100.00;96736.56;4991726;28;20129;-64
2022/10/17 06:23:17;;;;;;;4.47;2.50;;;12.60;83.80;;;11.19;100.00;96738.66;4974798;28;20045;-64
2022/10/17 06:25:43;;;;;;;4.93;2.95;;;12.60;83.80;;;11.24;100.00;96741.59;4972052;28;20168;-65
2022/10/17 06:28:10;;;;;;;3.55;2.53;;;12.70;83.70;;;11.26;100.00;96744.84;4991201;28;20030;-65
2022/10/17 06:30:39;;;;;;;4.82;2.83;;;12.70;83.90;;;11.32;100.00;96746.81;4956416;28;20091;-64
2022/10/17 06:33:04;;;;;;;5.68;2.80;;;12.80;83.80;;;11.35;100.00;96746.44;4979265;28;20022;-65
2022/10/17 06:35:30;;;;;;;5.18;2.85;;;12.90;83.80;;;11.41;100.00;96748.34;4990202;28;20044;-66
2022/10/17 06:37:56;;;;;;;4.25;2.60;;;12.90;83.70;;;11.48;100.00;96749.28;4975391;28;20105;-65
2022/10/17 06:40:22;;;;;;;4.28;2.55;;;13.00;83.40;;;11.54;100.00;96751.22;4975245;28;20105;-64
2022/10/17 06:42:47;;;;;;;3.50;2.60;;;13.10;83.20;;;11.62;100.00;96761.66;4990814;28;20137;-64
2022/10/17 06:45:13;;;;;;;6.55;2.72;;;13.20;83.00;;;11.70;100.00;96758.13;4988320;28;20045;-64
2022/10/17 06:47:39;;;;;;;5.03;2.95;;;13.30;83.00;;;11.79;100.00;96753.66;4974705;28;20119;-64
2022/10/17 06:50:05;;;;;;;4.65;2.90;;;13.40;82.60;;;11.85;100.00;96761.63;4959389;28;20057;-64
2022/10/17 06:52:31;;;;;;;4.93;3.25;;;13.50;82.60;;;11.93;100.00;96763.38;5008355;28;20498;-65
2022/10/17 06:54:57;;;;;;;5.20;2.90;;;13.60;82.60;;;12.03;100.00;96766.56;4990096;28;20077;-65
2022/10/17 06:57:22;;;;;;;5.45;3.08;;;13.70;82.30;;;12.13;100.00;96769.75;4975420;28;20454;-64
2022/10/17 06:59:48;;;;;;;4.35;3.20;;;13.80;81.60;;;12.23;100.00;96765.03;5007258;28;20434;-64
2022/10/17 07:02:14;;;;;;;5.25;3.53;;;14.00;81.30;;;12.34;100.00;96776.09;4993590;28;20514;-64
2022/10/17 07:04:40;;;;;;;5.80;3.28;;;14.10;81.50;;;12.46;100.00;96782.56;4994376;28;20576;-65
2022/10/17 07:07:05;;;;;;;28.75;20.08;;;14.30;80.80;;;12.60;100.00;96779.06;4993443;28;20128;-65
2022/10/17 07:09:31;;;;;;;21.85;18.10;;;14.60;80.70;;;12.77;100.00;96785.78;5009592;28;20062;-65
2022/10/17 07:11:58;;;;;;;8.88;6.60;;;14.70;80.20;;;12.93;100.00;96786.56;4978312;28;20201;-64
2022/10/17 07:14:30;;;;;;;10.02;7.80;;;15.00;79.30;;;13.07;100.00;96786.50;4977831;28;20041;-64
2022/10/17 07:16:59;;;;;;;16.17;12.48;;;15.10;79.00;;;13.24;100.00;96781.84;4979226;28;20042;-65
2022/10/17 07:19:28;;;;;;;7.00;4.20;;;15.40;78.20;;;13.38;100.00;96786.25;4992682;28;20041;-66
2022/10/17 07:21:54;;;;;;;9.38;4.40;;;15.70;76.90;;;13.56;100.00;96795.53;4978865;28;20037;-64
2022/10/17 07:24:19;;;;;;;7.57;5.88;;;16.00;75.50;;;13.73;100.00;96799.53;4961723;28;20432;-64
2022/10/17 07:26:45;;;;;;;11.13;7.20;;;16.30;74.30;;;13.90;100.00;96800.09;4974017;28;20038;-65
2022/10/17 07:29:11;;;;;;;10.50;7.07;;;16.60;73.40;;;14.07;100.00;96806.72;4993792;28;20026;-65
2022/10/17 07:31:37;;;;;;;8.43;4.30;;;16.90;72.30;;;14.24;100.00;96807.22;5009846;28;20099;-65
2022/10/17 07:34:02;;;;;;;6.63;3.45;;;17.20;70.80;;;14.43;100.00;96811.84;4994212;28;20053;-64
2022/10/17 07:36:28;;;;;;;5.13;2.55;;;17.60;69.50;;;14.59;100.00;96805.41;4992847;28;20186;-65
2022/10/17 07:38:54;;;;;;;7.28;2.78;;;18.00;67.70;;;14.80;100.00;96815.09;4961353;28;20077;-64
2022/10/17 07:41:20;;;;;;;3.75;2.70;;;18.30;66.50;;;14.99;100.00;96806.41;4977926;28;20026;-65
2022/10/17 07:43:46;;;;;;;6.65;2.70;;;18.70;65.20;;;15.18;100.00;96812.78;4977346;28;20054;-64
2022/10/17 07:46:11;;;;;;;5.70;2.45;;;19.00;64.30;;;15.41;100.00;96818.53;4976509;28;20450;-65
2022/10/17 07:48:39;;;;;;;3.97;2.33;;;19.40;63.50;;;15.62;100.00;96817.56;5009681;28;20065;-64
2022/10/17 07:51:06;;;;;;;4.78;2.20;;;19.60;62.70;;;15.81;100.00;96813.28;4977786;28;20085;-65
2022/10/17 07:53:38;;;;;;;6.28;2.60;;;19.80;62.00;;;15.98;100.00;96814.50;4977150;28;20502;-64
2022/10/17 07:56:07;;;;;;;3.78;2.30;;;20.10;61.20;;;16.20;100.00;96807.13;4961252;28;20029;-64
2022/10/17 07:58:33;;;;;;;5.35;2.20;;;20.30;59.20;;;16.43;100.00;96814.63;4993139;28;20031;-64
2022/10/17 08:01:04;;;;;;;4.90;2.40;;;20.80;58.10;;;16.67;100.00;96813.97;4977742;28;20089;-64
2022/10/17 08:03:30;;;;;;;2.97;2.28;;;21.10;56.90;;;16.87;100.00;96816.56;4977300;28;20505;-65
2022/10/17 08:06:00;;;;;;;4.63;2.45;;;21.50;56.50;;;17.09;100.00;96815.25;5009377;28;20057;-64
2022/10/17 08:08:25;;;;;;;2.50;2.10;;;21.80;56.40;;;17.33;100.00;96815.53;4976138;28;20034;-64
2022/10/17 08:10:52;;;;;;;3.72;2.10;;;22.30;54.80;;;17.59;100.00;96819.84;4974203;28;20037;-64
2022/10/17 08:13:18;;;;;;;5.28;2.50;;;22.60;53.40;;;17.81;100.00;96817.69;4974182;28;20058;-65
2022/10/17 08:15:46;;;;;;;5.15;2.35;;;22.80;53.50;;;18.03;100.00;96817.06;4989798;28;20469;-64
2022/10/17 08:18:13;;;;;;;6.78;2.70;;;23.10;52.20;;;18.30;99.09;96814.16;4987172;28;20228;-64
2022/10/17 08:20:43;;;;;;;4.50;2.33;;;23.40;51.60;;;18.52;97.08;96809.22;4993434;28;20057;-65
2022/10/17 08:23:08;;;;;;;5.70;2.58;;;23.50;51.00;;;18.77;96.34;96812.66;5009778;28;20036;-64
2022/10/17 08:25:38;;;;;;;5.43;2.83;;;23.60;51.30;;;19.04;92.28;96810.50;5009031;28;20038;-64
2022/10/17 08:28:04;;;;;;;5.53;2.50;;;23.90;50.50;;;19.28;93.86;96806.09;4992451;28;20355;-65
2022/10/17 08:30:30;;;;;;;7.28;2.40;;;24.00;50.30;;;19.52;92.34;96821.13;4957527;28;20030;-64
2022/10/17 08:32:56;;;;;;;3.65;2.10;;;24.10;51.00;;;19.75;90.69;96815.06;4973916;28;20054;-64
2022/10/17 08:35:22;;;;;;;6.72;2.47;;;24.20;50.10;;;19.97;88.02;96811.84;4989594;28;20518;-64
2022/10/17 08:37:48;;;;;;;4.72;2.40;;;24.50;47.70;;;20.17;86.32;96815.81;4991452;28;20042;-65
2022/10/17 08:40:20;;;;;;;5.15;2.10;;;25.00;46.80;;;20.43;81.69;96819.09;4976990;28;20156;-64
2022/10/17 08:43:14;;;;;;;6.18;2.25;;;25.30;46.10;;;20.73;78.17;96822.41;4977795;28;20576;-64
2022/10/17 08:46:01;;;;;;;2.75;1.83;;;25.90;45.50;;;21.04;76.24;96820.34;5007883;28;20111;-64
2022/10/17 08:48:30;;;;;;;3.83;2.30;;;26.20;44.00;;;21.30;80.15;96822.53;4990796;28;20035;-65
2022/10/17 08:51:12;;;;;;;5.55;2.40;;;26.40;43.30;;;21.57;73.84;96821.94;4977750;28;20026;-64
2022/10/17 08:53:48;;;;;;;3.53;2.28;;;26.60;43.20;;;21.80;70.04;96816.44;5009245;28;20522;-64
2022/10/17 08:56:35;;;;;;;5.35;1.98;;;26.60;41.60;;;22.00;71.11;96814.13;4973738;28;20177;-64
2022/10/17 08:59:03;;;;;;;4.25;1.95;;;26.80;41.90;;;22.24;74.95;96813.97;4994596;28;20068;-65
2022/10/17 09:01:55;;;;;;;3.40;2.17;;;27.00;42.30;;;22.56;66.90;96808.78;4991642;28;20042;-64
2022/10/17 09:04:47;;;;;;;3.13;1.90;;;27.50;40.70;;;22.84;63.49;96802.47;4958114;28;20035;-64
2022/10/17 09:07:46;;;;;;;3.03;1.65;;;27.70;38.30;;;23.19;61.97;96805.59;5001345;28;20061;-65
2022/10/17 09:10:57;;;;;;;3.50;1.70;;;28.10;38.20;;;23.51;62.22;96799.47;4992437;28;20038;-65
2022/10/17 09:14:03;;;;;;;2.97;1.63;;;28.70;37.50;;;23.79;60.12;96799.22;5005242;28;20121;-65
2022/10/17 09:16:49;;;;;;;1.92;1.45;;;29.30;36.00;;;24.09;60.12;96801.34;5007699;28;20114;-65
2022/10/17 09:19:36;;;;;;;4.45;1.60;;;29.90;35.70;;;24.30;59.32;96807.72;4989160;28;20096;-65
2022/10/17 09:22:15;;;;;;;3.40;1.80;;;30.40;34.70;;;24.61;59.42;96813.28;4991101;28;20077;-65
2022/10/17 09:24:49;;;;;;;3.78;1.70;;;31.10;34.60;;;24.88;59.45;96805.88;4973689;28;20030;-65
2022/10/17 09:28:03;;;;;;;3.53;1.60;;;32.00;33.60;;;25.22;57.38;96805.50;4992650;28;20068;-65
2022/10/17 09:30:56;;;;;;;2.83;1.55;;;32.60;32.10;;;25.62;55.57;96796.69;5008446;28;20082;-65
2022/10/17 09:33:47;;;;;;;2.13;1.50;;;33.90;30.00;;;25.96;57.62;96802.41;5010207;28;20030;-65
2022/10/17 09:36:30;;;;;;;3.28;2.00;;;34.80;29.40;;;26.38;55.25;96804.84;4980377;28;20516;-65
2022/10/17 09:39:14;;;;;;;3.67;1.70;;;35.70;27.70;;;26.68;54.83;96803.13;4993482;28;20069;-65
2022/10/17 09:41:47;;;;;;;3.70;1.85;;;36.10;27.50;;;27.07;56.25;96806.00;4978558;28;20164;-65
2022/10/17 09:44:12;;;;;;;4.60;1.70;;;37.30;26.90;;;27.51;60.40;96816.03;4976995;28;20556;-65
2022/10/17 09:46:38;;;;;;;2.67;1.90;;;38.10;25.90;;;28.01;60.09;96804.09;5009048;28;20065;-65
2022/10/17 09:49:14;;;;;;;3.60;1.83;;;39.30;24.40;;;28.53;52.16;96806.09;5008430;28;20497;-65
2022/10/17 09:51:40;;;;;;;5.25;2.22;;;40.30;23.70;;;29.07;57.10;96810.38;4992474;28;20390;-65
2022/10/17 09:54:24;;;;;;;7.95;2.00;;;41.00;22.40;;;29.70;48.51;96801.97;4992508;28;20049;-65
2022/10/17 09:57:07;;;;;;;2.95;1.95;;;42.10;22.00;;;30.34;47.01;96805.84;4991643;28;20520;-65
2022/10/17 09:59:42;;;;;;;4.30;2.08;;;42.50;21.30;;;30.85;46.51;96810.34;4972306;28;20052;-65
2022/10/17 10:02:12;;;;;;;3.42;2.25;;;43.20;20.60;;;31.31;45.60;96810.25;4973510;28;20053;-65
2022/10/17 10:04:53;;;;;;;3.05;1.77;;;43.50;20.00;;;31.88;42.12;96804.34;4989058;28;20049;-66
2022/10/17 10:07:19;;;;;;;5.05;2.05;;;44.30;19.70;;;32.39;47.89;96814.03;5003582;28;20034;-65
2022/10/17 10:09:47;;;;;;;2.85;1.90;;;44.30;19.50;;;32.78;46.81;96814.03;4975535;28;20033;-66
2022/10/17 10:12:31;;;;;;;4.78;2.33;;;44.80;19.70;;;33.16;40.64;96800.75;4976408;28;20026;-65
2022/10/17 10:14:57;;;;;;;4.10;2.00;;;45.40;19.40;;;33.51;44.99;96794.59;4978014;28;20044;-66
2022/10/17 10:17:42;;;;;;;3.08;2.00;;;45.60;18.70;;;33.80;37.72;96798.28;4967352;28;20030;-64
2022/10/17 10:20:34;;;;;;;4.72;2.00;;;45.60;18.60;;;34.19;35.68;96804.72;4992091;28;20045;-64
2022/10/17 10:23:17;;;;;;;3.92;1.77;;;45.50;18.20;;;34.43;35.96;96787.00;4993541;28;20034;-63
2022/10/17 10:26:00;;;;;;;3.15;1.58;;;45.30;18.50;;;34.45;35.58;96793.75;5007345;28;20026;-63
2022/10/17 10:28:32;;;;;;;2.63;1.50;;;44.50;19.20;;;34.31;35.72;96790.38;4996934;28;20449;-63
2022/10/17 10:31:01;;;;;;;2.88;1.55;;;42.30;20.70;;;33.93;37.97;96793.00;4980135;28;20030;-64
2022/10/17 10:33:28;;;;;;;2.35;1.40;;;39.80;23.10;;;33.37;38.31;96805.63;4963704;28;20092;-64